Coronado, Panama
Current Conditions -  °F | °C
As of 11:00 AM on Thursday 27 Nov 2014 (Local Time) from MPMG Reporting Station
Scattered Clouds Scattered Clouds  
Wind Chill: 88°   Ceiling: Unl
Heat Index: 94°   Visibility: 6mi
Dew Point: 72°   Wind: 0mph
Humidity: 58%   Direction: NA
Pressure: 29.88"   Gusts: NA
Location:  8.6°N, 79.99°W
Report Text: MPMG 271600Z 00000KT 9999 FEW018 SCT100 31/22 Q1012 NOSIG
Loading
Personal Weather Stations






























Interactive Weather Map New forecast layout! Learn more

10-Day Weather Forecast

Advertisements
Track Severe Weather on mobile